sensor_id;sensor_type;location;lat;lon;timestamp;P1;durP1;ratioP1;P2;durP2;ratioP2
4704;SDS011;2366;51.332;6.610;2022-08-21T00:02:23;4.63;;;3.63;;
4704;SDS011;2366;51.332;6.610;2022-08-21T00:04:50;6.65;;;4.93;;
4704;SDS011;2366;51.332;6.610;2022-08-21T00:07:17;7.95;;;4.57;;
4704;SDS011;2366;51.332;6.610;2022-08-21T00:09:43;5.47;;;4.45;;
4704;SDS011;2366;51.332;6.610;2022-08-21T00:12:09;6.97;;;4.83;;
4704;SDS011;2366;51.332;6.610;2022-08-21T00:14:35;6.77;;;5.50;;
4704;SDS011;2366;51.332;6.610;2022-08-21T00:17:02;6.32;;;5.32;;
4704;SDS011;2366;51.332;6.610;2022-08-21T00:19:27;7.75;;;4.95;;
4704;SDS011;2366;51.332;6.610;2022-08-21T00:21:53;8.13;;;5.47;;
4704;SDS011;2366;51.332;6.610;2022-08-21T00:24:20;15.45;;;5.20;;
4704;SDS011;2366;51.332;6.610;2022-08-21T00:26:47;15.38;;;6.78;;
4704;SDS011;2366;51.332;6.610;2022-08-21T00:29:13;10.77;;;5.97;;
4704;SDS011;2366;51.332;6.610;2022-08-21T00:31:39;5.43;;;4.80;;
4704;SDS011;2366;51.332;6.610;2022-08-21T00:34:05;16.75;;;5.55;;
4704;SDS011;2366;51.332;6.610;2022-08-21T00:36:32;6.50;;;4.80;;
4704;SDS011;2366;51.332;6.610;2022-08-21T00:38:58;9.17;;;5.63;;
4704;SDS011;2366;51.332;6.610;2022-08-21T00:41:23;12.03;;;6.70;;
4704;SDS011;2366;51.332;6.610;2022-08-21T00:43:49;7.43;;;5.97;;
4704;SDS011;2366;51.332;6.610;2022-08-21T00:46:15;8.40;;;6.57;;
4704;SDS011;2366;51.332;6.610;2022-08-21T00:48:41;11.40;;;6.10;;
4704;SDS011;2366;51.332;6.610;2022-08-21T00:51:08;8.60;;;5.73;;
4704;SDS011;2366;51.332;6.610;2022-08-21T00:53:39;6.78;;;5.60;;
4704;SDS011;2366;51.332;6.610;2022-08-21T00:56:07;9.57;;;6.43;;
4704;SDS011;2366;51.332;6.610;2022-08-21T00:58:35;9.68;;;6.55;;
4704;SDS011;2366;51.332;6.610;2022-08-21T01:01:03;8.45;;;5.80;;
4704;SDS011;2366;51.332;6.610;2022-08-21T01:03:30;7.65;;;6.05;;
4704;SDS011;2366;51.332;6.610;2022-08-21T01:05:55;13.80;;;6.90;;
4704;SDS011;2366;51.332;6.610;2022-08-21T01:08:21;7.33;;;6.57;;
4704;SDS011;2366;51.332;6.610;2022-08-21T01:10:48;10.63;;;6.30;;
4704;SDS011;2366;51.332;6.610;2022-08-21T01:13:14;9.55;;;7.22;;
4704;SDS011;2366;51.332;6.610;2022-08-21T01:15:43;10.02;;;6.88;;
4704;SDS011;2366;51.332;6.610;2022-08-21T01:18:11;14.40;;;7.65;;
4704;SDS011;2366;51.332;6.610;2022-08-21T01:20:38;24.05;;;7.10;;
4704;SDS011;2366;51.332;6.610;2022-08-21T01:23:06;7.07;;;6.40;;
4704;SDS011;2366;51.332;6.610;2022-08-21T01:25:33;15.47;;;7.83;;
4704;SDS011;2366;51.332;6.610;2022-08-21T01:28:00;8.98;;;7.07;;
4704;SDS011;2366;51.332;6.610;2022-08-21T01:30:29;24.98;;;7.68;;
4704;SDS011;2366;51.332;6.610;2022-08-21T01:32:59;26.40;;;10.05;;
4704;SDS011;2366;51.332;6.610;2022-08-21T01:35:25;13.60;;;7.40;;
4704;SDS011;2366;51.332;6.610;2022-08-21T01:37:50;12.40;;;7.60;;
4704;SDS011;2366;51.332;6.610;2022-08-21T01:40:16;7.50;;;6.73;;
4704;SDS011;2366;51.332;6.610;2022-08-21T01:42:43;10.20;;;7.95;;
4704;SDS011;2366;51.332;6.610;2022-08-21T01:45:10;10.82;;;8.18;;
4704;SDS011;2366;51.332;6.610;2022-08-21T01:47:36;9.60;;;7.33;;
4704;SDS011;2366;51.332;6.610;2022-08-21T01:50:03;10.70;;;8.27;;
4704;SDS011;2366;51.332;6.610;2022-08-21T01:52:30;12.77;;;8.00;;
4704;SDS011;2366;51.332;6.610;2022-08-21T01:54:56;10.03;;;6.60;;
4704;SDS011;2366;51.332;6.610;2022-08-21T01:57:21;8.93;;;7.00;;
4704;SDS011;2366;51.332;6.610;2022-08-21T01:59:47;13.40;;;8.70;;
4704;SDS011;2366;51.332;6.610;2022-08-21T02:02:13;14.23;;;8.20;;
4704;SDS011;2366;51.332;6.610;2022-08-21T02:04:38;11.23;;;9.23;;
4704;SDS011;2366;51.332;6.610;2022-08-21T02:07:04;10.77;;;8.33;;
4704;SDS011;2366;51.332;6.610;2022-08-21T02:09:29;10.00;;;7.43;;
4704;SDS011;2366;51.332;6.610;2022-08-21T02:11:55;12.13;;;7.83;;
4704;SDS011;2366;51.332;6.610;2022-08-21T02:14:21;10.35;;;8.77;;
4704;SDS011;2366;51.332;6.610;2022-08-21T02:16:47;13.33;;;9.47;;
4704;SDS011;2366;51.332;6.610;2022-08-21T02:19:13;16.50;;;10.20;;
4704;SDS011;2366;51.332;6.610;2022-08-21T02:21:40;17.23;;;10.43;;
4704;SDS011;2366;51.332;6.610;2022-08-21T02:24:06;11.77;;;9.82;;
4704;SDS011;2366;51.332;6.610;2022-08-21T02:26:33;12.00;;;10.20;;
4704;SDS011;2366;51.332;6.610;2022-08-21T02:28:58;10.90;;;8.43;;
4704;SDS011;2366;51.332;6.610;2022-08-21T02:31:24;19.00;;;8.90;;
4704;SDS011;2366;51.332;6.610;2022-08-21T02:33:49;17.23;;;9.43;;
4704;SDS011;2366;51.332;6.610;2022-08-21T02:36:16;11.60;;;9.18;;
4704;SDS011;2366;51.332;6.610;2022-08-21T02:38:41;14.03;;;8.97;;
4704;SDS011;2366;51.332;6.610;2022-08-21T02:41:10;12.10;;;9.45;;
4704;SDS011;2366;51.332;6.610;2022-08-21T02:43:38;12.05;;;9.80;;
4704;SDS011;2366;51.332;6.610;2022-08-21T02:46:04;22.77;;;10.60;;
4704;SDS011;2366;51.332;6.610;2022-08-21T02:48:31;11.00;;;9.55;;
4704;SDS011;2366;51.332;6.610;2022-08-21T02:51:02;12.30;;;9.27;;
4704;SDS011;2366;51.332;6.610;2022-08-21T02:53:30;17.27;;;10.25;;
4704;SDS011;2366;51.332;6.610;2022-08-21T02:55:57;10.35;;;9.32;;
4704;SDS011;2366;51.332;6.610;2022-08-21T02:58:26;44.97;;;12.20;;
4704;SDS011;2366;51.332;6.610;2022-08-21T03:00:53;14.90;;;8.80;;
4704;SDS011;2366;51.332;6.610;2022-08-21T03:03:19;9.60;;;8.60;;
4704;SDS011;2366;51.332;6.610;2022-08-21T03:05:46;12.05;;;10.77;;
4704;SDS011;2366;51.332;6.610;2022-08-21T03:08:12;12.95;;;10.82;;
4704;SDS011;2366;51.332;6.610;2022-08-21T03:10:41;10.45;;;9.48;;
4704;SDS011;2366;51.332;6.610;2022-08-21T03:13:08;12.55;;;10.07;;
4704;SDS011;2366;51.332;6.610;2022-08-21T03:15:34;16.03;;;10.30;;
4704;SDS011;2366;51.332;6.610;2022-08-21T03:18:01;13.45;;;9.77;;
4704;SDS011;2366;51.332;6.610;2022-08-21T03:20:29;11.55;;;9.50;;
4704;SDS011;2366;51.332;6.610;2022-08-21T03:22:57;10.90;;;9.35;;
4704;SDS011;2366;51.332;6.610;2022-08-21T03:25:23;17.65;;;11.70;;
4704;SDS011;2366;51.332;6.610;2022-08-21T03:27:50;11.38;;;10.15;;
4704;SDS011;2366;51.332;6.610;2022-08-21T03:30:15;12.87;;;9.47;;
4704;SDS011;2366;51.332;6.610;2022-08-21T03:32:42;14.85;;;8.95;;
4704;SDS011;2366;51.332;6.610;2022-08-21T03:35:08;10.67;;;9.53;;
4704;SDS011;2366;51.332;6.610;2022-08-21T03:37:34;18.75;;;9.60;;
4704;SDS011;2366;51.332;6.610;2022-08-21T03:40:00;13.60;;;11.55;;
4704;SDS011;2366;51.332;6.610;2022-08-21T03:42:26;17.77;;;10.48;;
4704;SDS011;2366;51.332;6.610;2022-08-21T03:44:52;15.90;;;11.60;;
4704;SDS011;2366;51.332;6.610;2022-08-21T03:47:17;20.87;;;11.93;;
4704;SDS011;2366;51.332;6.610;2022-08-21T03:49:42;16.93;;;11.23;;
4704;SDS011;2366;51.332;6.610;2022-08-21T03:52:08;15.03;;;9.40;;
4704;SDS011;2366;51.332;6.610;2022-08-21T03:54:33;13.90;;;10.27;;
4704;SDS011;2366;51.332;6.610;2022-08-21T03:56:59;17.13;;;9.90;;
4704;SDS011;2366;51.332;6.610;2022-08-21T03:59:25;12.02;;;9.55;;
4704;SDS011;2366;51.332;6.610;2022-08-21T04:01:54;15.73;;;10.10;;
4704;SDS011;2366;51.332;6.610;2022-08-21T04:04:22;15.25;;;11.88;;
4704;SDS011;2366;51.332;6.610;2022-08-21T04:06:48;10.03;;;9.00;;
4704;SDS011;2366;51.332;6.610;2022-08-21T04:09:14;11.57;;;10.38;;
4704;SDS011;2366;51.332;6.610;2022-08-21T04:11:40;14.60;;;10.48;;
4704;SDS011;2366;51.332;6.610;2022-08-21T04:14:06;15.37;;;11.50;;
4704;SDS011;2366;51.332;6.610;2022-08-21T04:16:31;16.07;;;10.57;;
4704;SDS011;2366;51.332;6.610;2022-08-21T04:18:57;11.83;;;10.23;;
4704;SDS011;2366;51.332;6.610;2022-08-21T04:21:22;13.97;;;11.00;;
4704;SDS011;2366;51.332;6.610;2022-08-21T04:23:48;18.50;;;11.00;;
4704;SDS011;2366;51.332;6.610;2022-08-21T04:26:13;17.90;;;12.77;;
4704;SDS011;2366;51.332;6.610;2022-08-21T04:28:39;12.33;;;10.80;;
4704;SDS011;2366;51.332;6.610;2022-08-21T04:31:04;16.83;;;12.80;;
4704;SDS011;2366;51.332;6.610;2022-08-21T04:33:30;14.80;;;10.67;;
4704;SDS011;2366;51.332;6.610;2022-08-21T04:35:55;13.73;;;12.10;;
4704;SDS011;2366;51.332;6.610;2022-08-21T04:38:21;15.10;;;13.00;;
4704;SDS011;2366;51.332;6.610;2022-08-21T04:40:47;14.87;;;12.10;;
4704;SDS011;2366;51.332;6.610;2022-08-21T04:43:13;20.13;;;10.65;;
4704;SDS011;2366;51.332;6.610;2022-08-21T04:45:40;15.70;;;12.50;;
4704;SDS011;2366;51.332;6.610;2022-08-21T04:48:09;29.13;;;11.10;;
4704;SDS011;2366;51.332;6.610;2022-08-21T04:50:44;21.33;;;11.30;;
4704;SDS011;2366;51.332;6.610;2022-08-21T04:53:22;21.92;;;11.40;;
4704;SDS011;2366;51.332;6.610;2022-08-21T04:55:49;16.92;;;10.65;;
4704;SDS011;2366;51.332;6.610;2022-08-21T04:58:17;21.25;;;11.82;;
4704;SDS011;2366;51.332;6.610;2022-08-21T05:00:45;18.27;;;13.00;;
4704;SDS011;2366;51.332;6.610;2022-08-21T05:03:12;14.93;;;11.02;;
4704;SDS011;2366;51.332;6.610;2022-08-21T05:05:39;16.95;;;9.82;;
4704;SDS011;2366;51.332;6.610;2022-08-21T05:08:05;14.33;;;10.67;;
4704;SDS011;2366;51.332;6.610;2022-08-21T05:10:36;17.05;;;10.15;;
4704;SDS011;2366;51.332;6.610;2022-08-21T05:13:02;15.47;;;9.80;;
4704;SDS011;2366;51.332;6.610;2022-08-21T05:15:28;11.23;;;9.60;;
4704;SDS011;2366;51.332;6.610;2022-08-21T05:17:55;9.90;;;8.88;;
4704;SDS011;2366;51.332;6.610;2022-08-21T05:20:21;13.53;;;9.27;;
4704;SDS011;2366;51.332;6.610;2022-08-21T05:22:46;13.63;;;8.83;;
4704;SDS011;2366;51.332;6.610;2022-08-21T05:25:11;15.10;;;10.00;;
4704;SDS011;2366;51.332;6.610;2022-08-21T05:27:37;11.23;;;9.33;;
4704;SDS011;2366;51.332;6.610;2022-08-21T05:30:03;15.05;;;7.95;;
4704;SDS011;2366;51.332;6.610;2022-08-21T05:32:32;17.05;;;8.45;;
4704;SDS011;2366;51.332;6.610;2022-08-21T05:34:58;9.87;;;8.87;;
4704;SDS011;2366;51.332;6.610;2022-08-21T05:37:23;17.83;;;8.20;;
4704;SDS011;2366;51.332;6.610;2022-08-21T05:39:48;7.20;;;6.10;;
4704;SDS011;2366;51.332;6.610;2022-08-21T05:42:14;7.47;;;5.80;;
4704;SDS011;2366;51.332;6.610;2022-08-21T05:44:39;6.20;;;5.60;;
4704;SDS011;2366;51.332;6.610;2022-08-21T05:47:05;6.13;;;5.57;;
4704;SDS011;2366;51.332;6.610;2022-08-21T05:49:32;12.03;;;5.03;;
4704;SDS011;2366;51.332;6.610;2022-08-21T05:51:58;6.13;;;4.47;;
4704;SDS011;2366;51.332;6.610;2022-08-21T05:54:24;7.40;;;4.80;;
4704;SDS011;2366;51.332;6.610;2022-08-21T05:56:49;4.60;;;3.80;;
4704;SDS011;2366;51.332;6.610;2022-08-21T05:59:14;14.83;;;4.03;;
4704;SDS011;2366;51.332;6.610;2022-08-21T06:01:40;7.07;;;3.60;;
4704;SDS011;2366;51.332;6.610;2022-08-21T06:04:06;5.93;;;3.57;;
4704;SDS011;2366;51.332;6.610;2022-08-21T06:06:32;5.20;;;2.97;;
4704;SDS011;2366;51.332;6.610;2022-08-21T06:08:58;6.40;;;3.87;;
4704;SDS011;2366;51.332;6.610;2022-08-21T06:11:23;10.30;;;3.90;;
4704;SDS011;2366;51.332;6.610;2022-08-21T06:13:49;7.10;;;3.13;;
4704;SDS011;2366;51.332;6.610;2022-08-21T06:16:15;6.13;;;3.10;;
4704;SDS011;2366;51.332;6.610;2022-08-21T06:18:41;5.80;;;3.00;;
4704;SDS011;2366;51.332;6.610;2022-08-21T06:21:08;3.83;;;2.53;;
4704;SDS011;2366;51.332;6.610;2022-08-21T06:23:34;5.57;;;2.60;;
4704;SDS011;2366;51.332;6.610;2022-08-21T06:26:00;4.70;;;2.30;;
4704;SDS011;2366;51.332;6.610;2022-08-21T06:28:26;7.07;;;2.10;;
4704;SDS011;2366;51.332;6.610;2022-08-21T06:30:52;8.87;;;2.40;;
4704;SDS011;2366;51.332;6.610;2022-08-21T06:33:17;2.13;;;1.93;;
4704;SDS011;2366;51.332;6.610;2022-08-21T06:35:43;7.73;;;2.47;;
4704;SDS011;2366;51.332;6.610;2022-08-21T06:38:08;4.10;;;2.10;;
4704;SDS011;2366;51.332;6.610;2022-08-21T06:40:34;4.10;;;2.23;;
4704;SDS011;2366;51.332;6.610;2022-08-21T06:43:05;8.53;;;2.13;;
4704;SDS011;2366;51.332;6.610;2022-08-21T06:45:35;11.80;;;2.30;;
4704;SDS011;2366;51.332;6.610;2022-08-21T06:48:01;4.53;;;1.83;;
4704;SDS011;2366;51.332;6.610;2022-08-21T06:50:27;3.30;;;2.03;;
4704;SDS011;2366;51.332;6.610;2022-08-21T06:53:26;5.47;;;2.20;;
4704;SDS011;2366;51.332;6.610;2022-08-21T06:55:46;5.60;;;2.30;;
4704;SDS011;2366;51.332;6.610;2022-08-21T06:58:12;7.53;;;2.00;;
4704;SDS011;2366;51.332;6.610;2022-08-21T07:00:39;3.70;;;2.13;;
4704;SDS011;2366;51.332;6.610;2022-08-21T07:03:06;2.40;;;1.90;;
4704;SDS011;2366;51.332;6.610;2022-08-21T07:05:31;4.57;;;1.63;;
4704;SDS011;2366;51.332;6.610;2022-08-21T07:07:57;5.60;;;2.10;;
4704;SDS011;2366;51.332;6.610;2022-08-21T07:10:24;4.10;;;1.87;;
4704;SDS011;2366;51.332;6.610;2022-08-21T07:12:50;2.67;;;1.50;;
4704;SDS011;2366;51.332;6.610;2022-08-21T07:15:17;2.80;;;1.50;;
4704;SDS011;2366;51.332;6.610;2022-08-21T07:17:43;2.47;;;1.37;;
4704;SDS011;2366;51.332;6.610;2022-08-21T07:20:08;3.37;;;1.23;;
4704;SDS011;2366;51.332;6.610;2022-08-21T07:22:35;2.00;;;1.53;;
4704;SDS011;2366;51.332;6.610;2022-08-21T07:25:01;2.47;;;1.00;;
4704;SDS011;2366;51.332;6.610;2022-08-21T07:27:27;1.87;;;0.97;;
4704;SDS011;2366;51.332;6.610;2022-08-21T07:29:52;3.87;;;1.80;;
4704;SDS011;2366;51.332;6.610;2022-08-21T07:32:18;3.13;;;1.10;;
4704;SDS011;2366;51.332;6.610;2022-08-21T07:34:43;4.93;;;1.10;;
4704;SDS011;2366;51.332;6.610;2022-08-21T07:37:09;3.23;;;1.20;;
4704;SDS011;2366;51.332;6.610;2022-08-21T07:39:35;4.30;;;1.50;;
4704;SDS011;2366;51.332;6.610;2022-08-21T07:42:00;1.10;;;1.00;;
4704;SDS011;2366;51.332;6.610;2022-08-21T07:44:26;2.10;;;0.97;;
4704;SDS011;2366;51.332;6.610;2022-08-21T07:46:51;1.53;;;0.70;;
4704;SDS011;2366;51.332;6.610;2022-08-21T07:49:16;5.63;;;1.07;;
4704;SDS011;2366;51.332;6.610;2022-08-21T07:51:42;2.83;;;0.70;;
4704;SDS011;2366;51.332;6.610;2022-08-21T07:54:07;3.30;;;0.90;;
4704;SDS011;2366;51.332;6.610;2022-08-21T07:56:33;1.87;;;1.10;;
4704;SDS011;2366;51.332;6.610;2022-08-21T07:58:58;1.00;;;0.70;;
4704;SDS011;2366;51.332;6.610;2022-08-21T08:01:24;5.53;;;1.03;;
4704;SDS011;2366;51.332;6.610;2022-08-21T08:03:49;3.07;;;0.93;;
4704;SDS011;2366;51.332;6.610;2022-08-21T08:06:15;1.83;;;0.90;;
4704;SDS011;2366;51.332;6.610;2022-08-21T08:08:43;1.77;;;0.80;;
4704;SDS011;2366;51.332;6.610;2022-08-21T08:11:09;1.33;;;1.00;;
4704;SDS011;2366;51.332;6.610;2022-08-21T08:13:40;1.90;;;0.80;;
4704;SDS011;2366;51.332;6.610;2022-08-21T08:16:10;1.80;;;0.87;;
4704;SDS011;2366;51.332;6.610;2022-08-21T08:18:35;1.47;;;0.60;;
4704;SDS011;2366;51.332;6.610;2022-08-21T08:21:01;1.17;;;0.67;;
4704;SDS011;2366;51.332;6.610;2022-08-21T08:23:27;1.10;;;0.77;;
4704;SDS011;2366;51.332;6.610;2022-08-21T08:25:52;1.87;;;0.80;;
4704;SDS011;2366;51.332;6.610;2022-08-21T08:28:18;2.90;;;0.50;;
4704;SDS011;2366;51.332;6.610;2022-08-21T08:30:44;1.20;;;0.80;;
4704;SDS011;2366;51.332;6.610;2022-08-21T08:33:11;1.83;;;0.80;;
4704;SDS011;2366;51.332;6.610;2022-08-21T08:35:36;1.40;;;0.83;;
4704;SDS011;2366;51.332;6.610;2022-08-21T08:38:01;3.30;;;0.80;;
4704;SDS011;2366;51.332;6.610;2022-08-21T08:40:37;1.93;;;0.80;;
4704;SDS011;2366;51.332;6.610;2022-08-21T08:43:14;3.27;;;0.97;;
4704;SDS011;2366;51.332;6.610;2022-08-21T08:45:40;1.77;;;0.70;;
4704;SDS011;2366;51.332;6.610;2022-08-21T08:48:10;2.37;;;1.10;;
4704;SDS011;2366;51.332;6.610;2022-08-21T08:51:03;1.70;;;1.00;;
4704;SDS011;2366;51.332;6.610;2022-08-21T08:53:37;2.97;;;1.20;;
4704;SDS011;2366;51.332;6.610;2022-08-21T08:56:14;5.33;;;1.17;;
4704;SDS011;2366;51.332;6.610;2022-08-21T08:58:40;2.40;;;0.97;;
4704;SDS011;2366;51.332;6.610;2022-08-21T09:01:15;3.00;;;1.30;;
4704;SDS011;2366;51.332;6.610;2022-08-21T09:03:42;2.90;;;1.03;;
4704;SDS011;2366;51.332;6.610;2022-08-21T09:06:18;4.60;;;0.83;;
4704;SDS011;2366;51.332;6.610;2022-08-21T09:09:02;1.23;;;0.77;;
4704;SDS011;2366;51.332;6.610;2022-08-21T09:11:38;3.33;;;1.40;;
4704;SDS011;2366;51.332;6.610;2022-08-21T09:16:54;3.90;;;1.10;;
4704;SDS011;2366;51.332;6.610;2022-08-21T09:19:39;4.20;;;1.00;;
4704;SDS011;2366;51.332;6.610;2022-08-21T09:25:27;1.60;;;0.60;;
4704;SDS011;2366;51.332;6.610;2022-08-21T09:27:57;2.50;;;0.90;;
4704;SDS011;2366;51.332;6.610;2022-08-21T09:30:24;1.33;;;0.90;;
4704;SDS011;2366;51.332;6.610;2022-08-21T09:32:53;1.70;;;0.50;;
4704;SDS011;2366;51.332;6.610;2022-08-21T09:35:20;1.97;;;0.97;;
4704;SDS011;2366;51.332;6.610;2022-08-21T09:38:03;3.30;;;0.93;;
4704;SDS011;2366;51.332;6.610;2022-08-21T09:45:28;4.57;;;2.07;;
4704;SDS011;2366;51.332;6.610;2022-08-21T09:47:54;1.13;;;0.97;;
4704;SDS011;2366;51.332;6.610;2022-08-21T09:50:21;1.90;;;1.10;;
4704;SDS011;2366;51.332;6.610;2022-08-21T09:52:53;1.53;;;1.00;;
4704;SDS011;2366;51.332;6.610;2022-08-21T09:55:28;4.67;;;1.07;;
4704;SDS011;2366;51.332;6.610;2022-08-21T09:58:16;1.30;;;0.63;;
4704;SDS011;2366;51.332;6.610;2022-08-21T10:00:43;9.70;;;1.03;;
4704;SDS011;2366;51.332;6.610;2022-08-21T10:03:11;3.93;;;1.30;;
4704;SDS011;2366;51.332;6.610;2022-08-21T10:08:25;2.43;;;0.73;;
4704;SDS011;2366;51.332;6.610;2022-08-21T10:10:57;3.63;;;1.17;;
4704;SDS011;2366;51.332;6.610;2022-08-21T10:22:00;5.90;;;1.33;;
4704;SDS011;2366;51.332;6.610;2022-08-21T10:24:31;5.17;;;0.70;;
4704;SDS011;2366;51.332;6.610;2022-08-21T10:27:09;1.47;;;0.93;;
4704;SDS011;2366;51.332;6.610;2022-08-21T10:35:06;2.33;;;1.20;;
4704;SDS011;2366;51.332;6.610;2022-08-21T10:40:39;3.50;;;0.83;;
4704;SDS011;2366;51.332;6.610;2022-08-21T10:43:19;1.00;;;0.60;;
4704;SDS011;2366;51.332;6.610;2022-08-21T10:48:51;3.43;;;0.73;;
4704;SDS011;2366;51.332;6.610;2022-08-21T10:51:43;2.90;;;1.00;;
4704;SDS011;2366;51.332;6.610;2022-08-21T10:54:26;2.60;;;0.87;;
4704;SDS011;2366;51.332;6.610;2022-08-21T10:57:03;2.57;;;0.70;;
4704;SDS011;2366;51.332;6.610;2022-08-21T10:59:38;4.00;;;1.20;;
4704;SDS011;2366;51.332;6.610;2022-08-21T11:02:18;1.43;;;0.93;;
4704;SDS011;2366;51.332;6.610;2022-08-21T11:05:01;1.70;;;0.67;;
4704;SDS011;2366;51.332;6.610;2022-08-21T11:10:24;1.33;;;0.70;;
4704;SDS011;2366;51.332;6.610;2022-08-21T11:13:38;2.00;;;0.73;;
4704;SDS011;2366;51.332;6.610;2022-08-21T11:18:29;3.50;;;0.90;;
4704;SDS011;2366;51.332;6.610;2022-08-21T11:23:46;0.67;;;0.60;;
4704;SDS011;2366;51.332;6.610;2022-08-21T11:26:21;1.10;;;0.90;;
4704;SDS011;2366;51.332;6.610;2022-08-21T11:28:56;2.90;;;0.80;;
4704;SDS011;2366;51.332;6.610;2022-08-21T11:37:11;1.33;;;0.90;;
4704;SDS011;2366;51.332;6.610;2022-08-21T11:45:21;1.80;;;0.60;;
4704;SDS011;2366;51.332;6.610;2022-08-21T11:47:58;1.00;;;0.73;;
4704;SDS011;2366;51.332;6.610;2022-08-21T11:50:30;1.57;;;1.00;;
4704;SDS011;2366;51.332;6.610;2022-08-21T11:53:17;1.53;;;0.63;;
4704;SDS011;2366;51.332;6.610;2022-08-21T11:58:37;1.77;;;0.80;;
4704;SDS011;2366;51.332;6.610;2022-08-21T12:01:11;3.33;;;1.13;;
4704;SDS011;2366;51.332;6.610;2022-08-21T12:03:51;1.90;;;0.80;;
4704;SDS011;2366;51.332;6.610;2022-08-21T12:06:28;1.17;;;0.80;;
4704;SDS011;2366;51.332;6.610;2022-08-21T12:14:48;4.10;;;1.67;;
4704;SDS011;2366;51.332;6.610;2022-08-21T12:17:19;2.30;;;1.20;;
4704;SDS011;2366;51.332;6.610;2022-08-21T12:19:57;9.33;;;1.43;;
4704;SDS011;2366;51.332;6.610;2022-08-21T12:22:34;1.73;;;0.70;;
4704;SDS011;2366;51.332;6.610;2022-08-21T12:25:06;3.27;;;0.97;;
4704;SDS011;2366;51.332;6.610;2022-08-21T12:27:51;4.63;;;1.10;;
4704;SDS011;2366;51.332;6.610;2022-08-21T12:30:19;5.67;;;0.77;;
4704;SDS011;2366;51.332;6.610;2022-08-21T12:32:54;2.70;;;1.20;;
4704;SDS011;2366;51.332;6.610;2022-08-21T12:35:26;1.77;;;0.60;;
4704;SDS011;2366;51.332;6.610;2022-08-21T12:38:07;0.60;;;0.60;;
4704;SDS011;2366;51.332;6.610;2022-08-21T12:43:56;5.70;;;1.00;;
4704;SDS011;2366;51.332;6.610;2022-08-21T12:46:31;1.53;;;0.80;;
4704;SDS011;2366;51.332;6.610;2022-08-21T12:49:03;1.17;;;0.70;;
4704;SDS011;2366;51.332;6.610;2022-08-21T12:54:42;0.87;;;0.70;;
4704;SDS011;2366;51.332;6.610;2022-08-21T12:57:16;1.10;;;0.80;;
4704;SDS011;2366;51.332;6.610;2022-08-21T13:00:03;1.67;;;0.80;;
4704;SDS011;2366;51.332;6.610;2022-08-21T13:02:35;3.10;;;1.00;;
4704;SDS011;2366;51.332;6.610;2022-08-21T13:05:07;5.33;;;1.83;;
4704;SDS011;2366;51.332;6.610;2022-08-21T13:07:37;2.60;;;1.30;;
4704;SDS011;2366;51.332;6.610;2022-08-21T13:10:07;0.93;;;0.73;;
4704;SDS011;2366;51.332;6.610;2022-08-21T13:12:43;2.50;;;0.87;;
4704;SDS011;2366;51.332;6.610;2022-08-21T13:15:09;2.33;;;0.97;;
4704;SDS011;2366;51.332;6.610;2022-08-21T13:17:36;1.03;;;0.93;;
4704;SDS011;2366;51.332;6.610;2022-08-21T13:20:07;1.73;;;0.70;;
4704;SDS011;2366;51.332;6.610;2022-08-21T13:22:42;3.17;;;1.00;;
4704;SDS011;2366;51.332;6.610;2022-08-21T13:25:12;1.80;;;1.00;;
4704;SDS011;2366;51.332;6.610;2022-08-21T13:27:40;6.70;;;1.40;;
4704;SDS011;2366;51.332;6.610;2022-08-21T13:32:40;3.20;;;1.00;;
4704;SDS011;2366;51.332;6.610;2022-08-21T13:37:51;2.33;;;1.10;;
4704;SDS011;2366;51.332;6.610;2022-08-21T13:40:20;1.17;;;0.83;;
4704;SDS011;2366;51.332;6.610;2022-08-21T13:42:50;4.60;;;1.30;;
4704;SDS011;2366;51.332;6.610;2022-08-21T13:45:17;1.90;;;0.80;;
4704;SDS011;2366;51.332;6.610;2022-08-21T13:47:47;2.53;;;1.00;;
4704;SDS011;2366;51.332;6.610;2022-08-21T13:50:13;2.13;;;0.90;;
4704;SDS011;2366;51.332;6.610;2022-08-21T13:52:48;7.33;;;0.90;;
4704;SDS011;2366;51.332;6.610;2022-08-21T13:55:19;4.20;;;2.10;;
4704;SDS011;2366;51.332;6.610;2022-08-21T13:57:45;4.70;;;1.00;;
4704;SDS011;2366;51.332;6.610;2022-08-21T14:00:18;4.53;;;0.80;;
4704;SDS011;2366;51.332;6.610;2022-08-21T14:02:50;4.80;;;1.57;;
4704;SDS011;2366;51.332;6.610;2022-08-21T14:05:22;3.73;;;1.10;;
4704;SDS011;2366;51.332;6.610;2022-08-21T14:07:55;1.53;;;0.70;;
4704;SDS011;2366;51.332;6.610;2022-08-21T14:10:27;8.87;;;1.17;;
4704;SDS011;2366;51.332;6.610;2022-08-21T14:12:55;2.10;;;0.77;;
4704;SDS011;2366;51.332;6.610;2022-08-21T14:15:31;4.10;;;1.03;;
4704;SDS011;2366;51.332;6.610;2022-08-21T14:21:03;2.23;;;0.87;;
4704;SDS011;2366;51.332;6.610;2022-08-21T14:23:34;2.40;;;0.80;;
4704;SDS011;2366;51.332;6.610;2022-08-21T14:26:02;3.80;;;0.90;;
4704;SDS011;2366;51.332;6.610;2022-08-21T14:28:37;6.83;;;0.77;;
4704;SDS011;2366;51.332;6.610;2022-08-21T14:31:15;3.73;;;1.30;;
4704;SDS011;2366;51.332;6.610;2022-08-21T14:33:43;5.50;;;0.97;;
4704;SDS011;2366;51.332;6.610;2022-08-21T14:36:09;2.37;;;1.10;;
4704;SDS011;2366;51.332;6.610;2022-08-21T14:38:35;1.10;;;0.67;;
4704;SDS011;2366;51.332;6.610;2022-08-21T14:41:35;0.70;;;0.70;;
4704;SDS011;2366;51.332;6.610;2022-08-21T14:43:54;3.03;;;1.00;;
4704;SDS011;2366;51.332;6.610;2022-08-21T14:46:22;3.50;;;1.23;;
4704;SDS011;2366;51.332;6.610;2022-08-21T14:48:50;2.13;;;0.73;;
4704;SDS011;2366;51.332;6.610;2022-08-21T14:51:16;1.60;;;0.93;;
4704;SDS011;2366;51.332;6.610;2022-08-21T14:53:41;5.93;;;1.13;;
4704;SDS011;2366;51.332;6.610;2022-08-21T14:56:07;3.03;;;0.80;;
4704;SDS011;2366;51.332;6.610;2022-08-21T14:58:36;4.67;;;2.60;;
4704;SDS011;2366;51.332;6.610;2022-08-21T15:01:04;1.17;;;0.80;;
4704;SDS011;2366;51.332;6.610;2022-08-21T15:03:32;1.90;;;1.40;;
4704;SDS011;2366;51.332;6.610;2022-08-21T15:05:58;1.57;;;0.80;;
4704;SDS011;2366;51.332;6.610;2022-08-21T15:08:24;2.13;;;0.83;;
4704;SDS011;2366;51.332;6.610;2022-08-21T15:10:51;2.20;;;1.23;;
4704;SDS011;2366;51.332;6.610;2022-08-21T15:13:17;2.10;;;0.70;;
4704;SDS011;2366;51.332;6.610;2022-08-21T15:15:45;1.30;;;0.90;;
4704;SDS011;2366;51.332;6.610;2022-08-21T15:18:12;4.63;;;1.40;;
4704;SDS011;2366;51.332;6.610;2022-08-21T15:20:38;2.33;;;0.93;;
4704;SDS011;2366;51.332;6.610;2022-08-21T15:23:05;2.30;;;0.70;;
4704;SDS011;2366;51.332;6.610;2022-08-21T15:25:32;3.73;;;1.07;;
4704;SDS011;2366;51.332;6.610;2022-08-21T15:27:58;1.80;;;1.00;;
4704;SDS011;2366;51.332;6.610;2022-08-21T15:30:25;2.53;;;0.83;;
4704;SDS011;2366;51.332;6.610;2022-08-21T15:32:51;4.00;;;1.70;;
4704;SDS011;2366;51.332;6.610;2022-08-21T15:35:16;2.40;;;1.00;;
4704;SDS011;2366;51.332;6.610;2022-08-21T15:37:42;3.70;;;1.40;;
4704;SDS011;2366;51.332;6.610;2022-08-21T15:40:08;4.43;;;1.33;;
4704;SDS011;2366;51.332;6.610;2022-08-21T15:42:35;2.50;;;0.90;;
4704;SDS011;2366;51.332;6.610;2022-08-21T15:45:00;1.97;;;1.17;;
4704;SDS011;2366;51.332;6.610;2022-08-21T15:47:31;4.50;;;1.00;;
4704;SDS011;2366;51.332;6.610;2022-08-21T15:49:59;3.60;;;1.20;;
4704;SDS011;2366;51.332;6.610;2022-08-21T15:52:25;2.57;;;0.87;;
4704;SDS011;2366;51.332;6.610;2022-08-21T15:54:51;3.70;;;1.00;;
4704;SDS011;2366;51.332;6.610;2022-08-21T15:57:19;1.77;;;0.90;;
4704;SDS011;2366;51.332;6.610;2022-08-21T15:59:50;1.43;;;0.77;;
4704;SDS011;2366;51.332;6.610;2022-08-21T16:02:22;1.93;;;1.00;;
4704;SDS011;2366;51.332;6.610;2022-08-21T16:04:50;1.83;;;0.90;;
4704;SDS011;2366;51.332;6.610;2022-08-21T16:07:16;2.47;;;1.03;;
4704;SDS011;2366;51.332;6.610;2022-08-21T16:09:41;2.33;;;0.73;;
4704;SDS011;2366;51.332;6.610;2022-08-21T16:12:07;5.73;;;0.80;;
4704;SDS011;2366;51.332;6.610;2022-08-21T16:14:36;2.50;;;1.53;;
4704;SDS011;2366;51.332;6.610;2022-08-21T16:17:03;5.40;;;1.17;;
4704;SDS011;2366;51.332;6.610;2022-08-21T16:19:30;4.53;;;1.97;;
4704;SDS011;2366;51.332;6.610;2022-08-21T16:21:55;2.40;;;0.97;;
4704;SDS011;2366;51.332;6.610;2022-08-21T16:24:21;1.43;;;0.90;;
4704;SDS011;2366;51.332;6.610;2022-08-21T16:26:47;1.27;;;0.73;;
4704;SDS011;2366;51.332;6.610;2022-08-21T16:29:14;3.50;;;0.97;;
4704;SDS011;2366;51.332;6.610;2022-08-21T16:31:40;3.67;;;1.30;;
4704;SDS011;2366;51.332;6.610;2022-08-21T16:34:05;1.00;;;0.90;;
4704;SDS011;2366;51.332;6.610;2022-08-21T16:36:31;3.30;;;1.10;;